CheckWX is a tool to help pilots better visualize weather data.  It is not intended as a substitute for an official pre-flight weather briefing.

10:28:56 UTC

0J4 METAR
Florala Municipal Airport
Florala, Alabama, USA
Current

31 mins ago

K0J4 250958Z AUTO 05003KT 10SM CLR 23/21 A2997 RMK AO2 SLP142 T02280211
Observed
Aug-25 @ 09:58 UTC
Wind
  • 050° at 3 KTS
Visibility
10 SM
Flight Rules
VFR
Cloud Levels
  • Clear skies
Temperature
23°C / 73°F
Dewpoint
21°C / 70°F
Humidity
89%
Altimeter
29.97" Hg
Pressure
1014.92 hPa
Previous

2 hours ago

K0J4 250858Z AUTO 00000KT 10SM CLR 23/22 A2996 RMK AO2 SLP142 T02330217 55013
Observed
Aug-25 @ 08:58 UTC
Visibility
10 SM
Flight Rules
VFR
Cloud Levels
  • Clear skies
Temperature
23°C / 73°F
Dewpoint
22°C / 72°F
Humidity
94%
Altimeter
29.96" Hg
Pressure
1014.52 hPa
Previous

3 hours ago

K0J4 250758Z AUTO 33003KT 10SM CLR 24/22 A2996 RMK AO2 SLP141 T02390217
Observed
Aug-25 @ 07:58 UTC
Wind
  • 330° at 3 KTS
Visibility
10 SM
Flight Rules
VFR
Cloud Levels
  • Clear skies
Temperature
24°C / 75°F
Dewpoint
22°C / 72°F
Humidity
89%
Altimeter
29.96" Hg
Pressure
1014.52 hPa